Time;durP1;ratioP1;P1;durP2;ratioP2;P2;SDS_P1;SDS_P2;PMS_P1;PMS_P2;Temp;Humidity;BMP_temperature;BMP_pressure;BME280_temperature;BME280_humidity;BME280_pressure;Samples;Min_cycle;Max_cycle;Signal;HPM_P1;HPM_P2
2023/01/01 00:01:08;;;;;;;0.00;0.00;;;;;;;15.52;57.98;98888.78;4948024;28;20296;-56
2023/01/01 00:03:36;;;;;;;0.00;0.00;;;;;;;15.60;57.05;98888.72;4944274;28;21122;-55
2023/01/01 00:06:06;;;;;;;0.00;0.00;;;;;;;15.48;58.60;98894.38;4948049;28;20248;-57
2023/01/01 00:08:33;;;;;;;0.00;0.00;;;;;;;15.45;58.73;98888.63;4947776;28;20229;-56
2023/01/01 00:11:00;;;;;;;0.00;0.00;;;;;;;15.46;58.46;98896.38;4947787;28;20309;-57
2023/01/01 00:13:27;;;;;;;0.00;0.00;;;;;;;15.39;59.36;98898.06;4950223;28;20627;-57
2023/01/01 00:15:54;;;;;;;0.00;0.00;;;;;;;15.29;59.28;98905.38;4951091;28;20235;-58
2023/01/01 00:18:20;;;;;;;0.00;0.00;;;;;;;15.17;59.67;98892.63;4948547;28;20250;-57
2023/01/01 00:20:48;;;;;;;0.00;0.00;;;;;;;15.11;60.15;98892.50;4946486;28;20757;-57
2023/01/01 00:23:15;;;;;;;0.00;0.00;;;;;;;15.10;60.63;98883.78;4943595;28;20232;-57
2023/01/01 00:25:41;;;;;;;0.00;0.00;;;;;;;15.09;60.53;98876.88;4943995;28;20231;-57
2023/01/01 00:28:08;;;;;;;0.00;0.00;;;;;;;15.16;60.05;98882.28;4947329;28;20231;-57
2023/01/01 00:30:35;;;;;;;0.00;0.00;;;;;;;15.09;60.74;98874.25;4945311;28;20237;-56
2023/01/01 00:33:02;;;;;;;0.00;0.00;;;;;;;15.05;60.68;98875.59;4946915;28;20247;-55
2023/01/01 00:35:28;;;;;;;0.00;0.00;;;;;;;14.99;61.55;98879.75;4961049;28;20238;-57
2023/01/01 00:37:56;;;;;;;0.00;0.00;;;;;;;15.03;61.25;98870.53;4951760;28;20670;-56
2023/01/01 00:40:23;;;;;;;0.00;0.00;;;;;;;15.01;61.14;98874.31;4949539;28;20223;-56
2023/01/01 00:42:50;;;;;;;0.00;0.00;;;;;;;15.10;61.11;98875.09;4949486;28;20234;-56
2023/01/01 00:45:16;;;;;;;0.00;0.00;;;;;;;15.00;61.40;98873.50;4950915;28;20317;-56
2023/01/01 00:47:43;;;;;;;0.00;0.00;;;;;;;15.10;60.41;98878.53;4947848;28;20290;-55
2023/01/01 00:50:09;;;;;;;0.00;0.00;;;;;;;15.27;60.25;98887.13;4950098;28;20295;-57
2023/01/01 00:52:36;;;;;;;0.00;0.00;;;;;;;15.29;60.18;98876.44;4946518;28;20221;-57
2023/01/01 00:55:04;;;;;;;0.00;0.00;;;;;;;15.19;60.88;98880.09;4952173;28;20234;-56
2023/01/01 00:57:31;;;;;;;0.00;0.00;;;;;;;15.17;60.15;98887.34;4949422;28;20531;-56
2023/01/01 00:59:57;;;;;;;0.00;0.00;;;;;;;15.25;59.43;98875.97;4950418;28;20243;-57
2023/01/01 01:02:24;;;;;;;0.00;0.00;;;;;;;15.29;59.28;98879.91;4947212;28;20232;-56
2023/01/01 01:04:51;;;;;;;0.00;0.00;;;;;;;15.25;59.43;98881.25;4947534;28;20321;-57
2023/01/01 01:07:17;;;;;;;0.00;0.00;;;;;;;15.40;58.47;98878.66;4950427;28;20718;-56
2023/01/01 01:09:44;;;;;;;0.00;0.00;;;;;;;15.41;58.76;98896.06;4949005;28;20663;-56
2023/01/01 01:12:12;;;;;;;0.00;0.00;;;;;;;15.48;58.12;98886.50;4950678;28;20226;-55
2023/01/01 01:14:38;;;;;;;0.00;0.00;;;;;;;15.46;58.29;98892.91;4946279;28;20226;-56
2023/01/01 01:17:05;;;;;;;0.00;0.00;;;;;;;15.41;58.55;98895.25;4951928;28;20242;-57
2023/01/01 01:19:31;;;;;;;0.00;0.00;;;;;;;15.32;58.64;98905.84;4947448;28;20284;-57
2023/01/01 01:21:58;;;;;;;0.00;0.00;;;;;;;15.40;58.48;98904.13;4951608;28;20239;-57
2023/01/01 01:24:25;;;;;;;0.00;0.00;;;;;;;15.31;58.56;98921.78;4944817;28;21191;-56
2023/01/01 01:26:53;;;;;;;0.00;0.00;;;;;;;15.51;57.49;98911.63;4951152;28;20298;-56
2023/01/01 01:29:21;;;;;;;0.00;0.00;;;;;;;15.34;58.20;98916.19;4951596;28;20221;-56
2023/01/01 01:31:48;;;;;;;0.00;0.00;;;;;;;15.33;58.01;98919.81;4949185;28;20256;-57
2023/01/01 01:34:16;;;;;;;0.00;0.00;;;;;;;15.44;58.10;98922.03;4948492;28;20298;-57
2023/01/01 01:36:43;;;;;;;0.00;0.00;;;;;;;15.49;58.28;98913.59;4948960;28;20245;-57
2023/01/01 01:39:11;;;;;;;0.00;0.00;;;;;;;15.33;59.34;98939.03;4950275;28;20297;-56
2023/01/01 01:41:37;;;;;;;0.00;0.00;;;;;;;15.36;58.62;98922.09;4949049;28;20232;-57
2023/01/01 01:44:27;;;;;;;0.00;0.00;;;;;;;15.29;59.16;98923.78;4952000;28;20235;-56
2023/01/01 01:46:58;;;;;;;0.00;0.00;;;;;;;15.35;59.06;98933.59;4945263;28;20710;-56
2023/01/01 01:49:30;;;;;;;0.00;0.00;;;;;;;15.40;58.19;98927.81;4945912;28;20795;-56
2023/01/01 01:51:58;;;;;;;0.00;0.00;;;;;;;15.35;58.61;98941.50;4949913;28;20227;-56
2023/01/01 01:54:28;;;;;;;0.00;0.00;;;;;;;15.33;59.06;98935.59;4945953;28;20229;-56
2023/01/01 01:56:59;;;;;;;0.00;0.00;;;;;;;15.20;59.93;98930.91;4949006;28;20243;-57
2023/01/01 01:59:30;;;;;;;0.00;0.00;;;;;;;15.14;60.08;98935.03;4948298;28;20241;-55
2023/01/01 02:01:59;;;;;;;0.00;0.00;;;;;;;15.09;59.61;98939.19;4950660;28;20288;-56
2023/01/01 02:04:26;;;;;;;0.00;0.00;;;;;;;15.05;59.74;98941.31;4947246;28;20239;-57
2023/01/01 02:06:53;;;;;;;0.00;0.00;;;;;;;15.13;59.04;98946.53;4951220;28;20249;-56
2023/01/01 02:09:21;;;;;;;0.00;0.00;;;;;;;15.05;59.99;98943.94;4950102;28;20699;-55
2023/01/01 02:11:47;;;;;;;0.00;0.00;;;;;;;14.91;59.91;98945.50;4942929;28;20657;-56
2023/01/01 02:14:14;;;;;;;0.00;0.00;;;;;;;14.82;60.01;98946.53;4949581;28;21001;-57
2023/01/01 02:16:45;;;;;;;0.00;0.00;;;;;;;14.76;60.50;98937.53;4946180;28;20231;-56
2023/01/01 02:19:24;;;;;;;0.00;0.00;;;;;;;14.89;59.20;98929.88;4948004;28;20250;-56
2023/01/01 02:22:01;;;;;;;0.00;0.00;;;;;;;14.65;60.50;98941.28;4947473;28;20301;-57
2023/01/01 02:24:43;;;;;;;0.00;0.00;;;;;;;14.66;59.96;98934.25;4944819;28;20234;-56
2023/01/01 02:27:20;;;;;;;0.00;0.00;;;;;;;14.56;60.25;98919.50;4948589;28;20308;-56
2023/01/01 02:29:53;;;;;;;0.00;0.00;;;;;;;14.74;58.99;98915.84;4948747;28;20782;-56
2023/01/01 02:32:26;;;;;;;0.00;0.00;;;;;;;14.76;59.05;98919.13;4944962;28;20225;-57
2023/01/01 02:34:57;;;;;;;0.00;0.00;;;;;;;14.72;57.89;98920.47;4949543;28;20240;-56
2023/01/01 02:37:28;;;;;;;0.00;0.00;;;;;;;14.81;56.79;98924.69;4947207;28;20224;-56
2023/01/01 02:39:59;;;;;;;0.00;0.00;;;;;;;14.66;57.53;98923.72;4948105;28;20294;-57
2023/01/01 02:42:29;;;;;;;0.00;0.00;;;;;;;14.70;57.66;98909.31;4944607;28;20262;-56
2023/01/01 02:44:59;;;;;;;0.00;0.00;;;;;;;14.67;56.92;98920.91;4949588;28;20239;-56
2023/01/01 02:47:26;;;;;;;0.00;0.00;;;;;;;14.57;56.19;98909.78;4944898;28;20281;-56
2023/01/01 02:50:02;;;;;;;0.00;0.00;;;;;;;14.73;55.18;98901.06;4947666;28;20369;-56
2023/01/01 02:52:45;;;;;;;0.00;0.00;;;;;;;14.68;55.47;98921.75;4947592;28;20235;-56
2023/01/01 02:55:20;;;;;;;0.00;0.00;;;;;;;14.86;55.34;98924.16;4947746;28;20245;-55
2023/01/01 02:57:52;;;;;;;0.00;0.00;;;;;;;14.93;54.17;98930.38;4941235;28;20238;-56
2023/01/01 03:00:26;;;;;;;0.00;0.00;;;;;;;15.05;53.37;98922.91;4947734;28;20736;-56
2023/01/01 03:03:14;;;;;;;0.00;0.00;;;;;;;14.90;53.96;98907.88;4945058;28;20339;-56
2023/01/01 03:08:44;;;;;;;0.00;0.00;;;;;;;15.06;53.39;98927.19;4944029;28;20216;-53
2023/01/01 03:11:14;;;;;;;0.00;0.00;;;;;;;15.01;54.12;98937.38;4947727;28;20235;-57
2023/01/01 03:13:49;;;;;;;0.00;0.00;;;;;;;14.91;53.93;98922.66;4947229;28;20703;-57
2023/01/01 03:16:24;;;;;;;0.00;0.00;;;;;;;15.13;53.00;98941.28;4949742;28;20251;-56
2023/01/01 03:19:10;;;;;;;0.00;0.00;;;;;;;15.11;53.41;98919.59;4963692;23;20215;-58
2023/01/01 03:21:43;;;;;;;0.00;0.00;;;;;;;15.04;52.94;98918.66;4947419;28;20242;-58
2023/01/01 03:24:16;;;;;;;0.00;0.00;;;;;;;15.05;52.61;98923.75;4950870;28;20218;-57
2023/01/01 03:26:45;;;;;;;0.00;0.00;;;;;;;14.92;52.37;98912.97;4928122;28;20240;-58
2023/01/01 03:29:13;;;;;;;0.00;0.00;;;;;;;14.96;53.55;98916.06;4932168;28;20245;-60
2023/01/01 03:31:44;;;;;;;0.00;0.00;;;;;;;14.84;52.74;98936.66;4930455;28;20230;-58
2023/01/01 03:34:18;;;;;;;0.00;0.00;;;;;;;14.96;52.73;98935.28;4931396;28;20251;-59
2023/01/01 03:36:49;;;;;;;0.00;0.00;;;;;;;14.95;52.72;98919.69;4929817;28;20263;-57
2023/01/01 03:39:20;;;;;;;0.00;0.00;;;;;;;14.84;52.74;98932.22;4931268;28;20236;-58
2023/01/01 03:41:49;;;;;;;0.00;0.00;;;;;;;14.95;52.72;98938.06;4930010;29;20369;-58
2023/01/01 03:44:23;;;;;;;0.00;0.00;;;;;;;14.87;53.09;98928.44;4933093;28;20234;-59
2023/01/01 03:46:50;;;;;;;0.00;0.00;;;;;;;15.05;52.40;98929.00;4928818;29;20297;-58
2023/01/01 03:49:19;;;;;;;0.00;0.00;;;;;;;14.84;53.23;98941.91;4932425;28;20744;-58
2023/01/01 03:51:59;;;;;;;0.00;0.00;;;;;;;14.96;52.89;98929.19;4931826;28;20244;-58
2023/01/01 03:54:43;;;;;;;0.00;0.00;;;;;;;15.14;51.62;98932.41;4926890;28;20226;-58
2023/01/01 03:57:16;;;;;;;0.00;0.00;;;;;;;14.94;53.10;98945.16;4932014;28;20292;-58
2023/01/01 03:59:51;;;;;;;0.00;0.00;;;;;;;15.08;52.57;98933.09;4929913;28;20705;-58
2023/01/01 04:02:26;;;;;;;0.00;0.00;;;;;;;14.92;53.23;98941.88;4932337;28;20239;-58
2023/01/01 04:04:53;;;;;;;0.00;0.00;;;;;;;15.14;52.75;98936.84;4931104;28;20242;-58
2023/01/01 04:07:21;;;;;;;0.00;0.00;;;;;;;15.09;52.39;98945.25;4929915;28;20232;-59
2023/01/01 04:09:51;;;;;;;0.00;0.00;;;;;;;15.04;53.07;98953.66;4929728;28;20242;-59
2023/01/01 04:12:18;;;;;;;0.00;0.00;;;;;;;14.94;53.72;98944.31;4936394;28;20287;-58
2023/01/01 04:14:45;;;;;;;0.00;0.00;;;;;;;14.93;53.96;98956.66;4934332;28;20247;-58
2023/01/01 04:17:13;;;;;;;0.00;0.00;;;;;;;14.90;52.79;98936.78;4935667;28;20723;-58
2023/01/01 04:19:41;;;;;;;0.00;0.00;;;;;;;15.00;53.92;98939.22;4933583;28;20255;-59
2023/01/01 04:22:08;;;;;;;0.00;0.00;;;;;;;14.95;53.02;98959.09;4938091;28;20246;-58
2023/01/01 04:24:35;;;;;;;0.00;0.00;;;;;;;15.21;52.26;98956.22;4931512;28;20239;-58
2023/01/01 04:27:02;;;;;;;0.00;0.00;;;;;;;15.33;51.57;98948.72;4934545;28;20228;-58
2023/01/01 04:29:28;;;;;;;0.00;0.00;;;;;;;15.10;53.51;98946.06;4932299;28;20227;-58
2023/01/01 04:31:55;;;;;;;0.00;0.00;;;;;;;15.07;53.20;98943.78;5173878;23;20232;-52
2023/01/01 04:34:21;;;;;;;0.00;0.00;;;;;;;14.94;54.23;98941.69;4953097;28;20848;-52
2023/01/01 04:36:49;;;;;;;0.00;0.00;;;;;;;14.83;54.32;98943.75;4951306;28;20635;-52
2023/01/01 04:39:16;;;;;;;0.00;0.00;;;;;;;14.75;54.35;98944.56;4952155;28;20243;-53
2023/01/01 04:41:42;;;;;;;0.00;0.00;;;;;;;14.63;55.62;98945.91;4948434;28;20256;-52
2023/01/01 04:44:09;;;;;;;0.00;0.00;;;;;;;14.73;54.44;98936.03;4953092;28;20298;-53
2023/01/01 04:46:36;;;;;;;0.00;0.00;;;;;;;14.75;54.75;98933.25;4948459;28;20228;-53
2023/01/01 04:49:02;;;;;;;0.00;0.00;;;;;;;14.76;53.84;98951.47;4952999;28;21269;-52
2023/01/01 04:51:29;;;;;;;0.00;0.00;;;;;;;14.91;53.41;98942.88;4951056;28;20230;-53
2023/01/01 04:53:59;;;;;;;0.00;0.00;;;;;;;14.83;53.72;98953.41;4951182;28;20229;-53
2023/01/01 04:56:26;;;;;;;0.00;0.00;;;;;;;14.86;54.73;98958.34;4948595;28;20583;-51
2023/01/01 04:58:52;;;;;;;0.00;0.00;;;;;;;14.83;53.02;98961.31;4951550;28;20294;-52
2023/01/01 05:01:21;;;;;;;0.00;0.00;;;;;;;14.69;53.95;98963.63;4951779;28;20235;-54
2023/01/01 05:03:48;;;;;;;0.00;0.00;;;;;;;14.66;54.22;98945.56;4947200;28;20639;-54
2023/01/01 05:06:16;;;;;;;0.00;0.00;;;;;;;14.65;54.28;98954.44;4951638;28;20244;-52
2023/01/01 05:08:44;;;;;;;0.00;0.00;;;;;;;14.61;54.41;98958.38;4949388;28;20239;-54
2023/01/01 05:11:14;;;;;;;0.00;0.00;;;;;;;14.61;54.29;98959.22;4951247;28;20257;-53
2023/01/01 05:13:42;;;;;;;0.00;0.00;;;;;;;14.88;54.04;98977.38;4950363;28;20718;-54
2023/01/01 05:16:11;;;;;;;0.00;0.00;;;;;;;14.87;53.29;98976.53;4950507;28;20236;-52
2023/01/01 05:18:38;;;;;;;0.00;0.00;;;;;;;15.02;52.40;98970.56;4951873;28;20242;-54
2023/01/01 05:21:07;;;;;;;0.00;0.00;;;;;;;15.09;52.09;98965.47;4954819;28;20249;-53
2023/01/01 05:23:34;;;;;;;0.00;0.00;;;;;;;14.99;52.09;98971.75;4954469;28;20283;-52
2023/01/01 05:26:08;;;;;;;0.00;0.00;;;;;;;14.86;52.94;98964.41;4956616;28;20227;-54
2023/01/01 05:28:36;;;;;;;0.00;0.00;;;;;;;14.88;52.53;98991.31;4954538;28;20246;-51
2023/01/01 05:31:05;;;;;;;0.00;0.00;;;;;;;15.01;53.22;98992.59;4958675;28;20288;-53
2023/01/01 05:33:32;;;;;;;0.00;0.00;;;;;;;14.98;52.63;98995.56;4955087;28;20230;-54
2023/01/01 05:35:58;;;;;;;0.00;0.00;;;;;;;14.91;52.87;98996.25;4951344;28;20725;-53
2023/01/01 05:38:25;;;;;;;0.00;0.00;;;;;;;14.75;53.13;98993.69;4955539;28;20604;-51
2023/01/01 05:40:52;;;;;;;0.00;0.00;;;;;;;14.95;52.95;98994.09;4955131;28;20230;-51
2023/01/01 05:43:18;;;;;;;0.00;0.00;;;;;;;14.88;53.31;98999.22;4959442;28;20328;-52
2023/01/01 05:45:46;;;;;;;0.00;0.00;;;;;;;14.76;53.36;98997.97;4954433;28;20267;-52
2023/01/01 05:48:12;;;;;;;0.00;0.00;;;;;;;14.69;53.27;98996.97;4955307;28;20240;-53
2023/01/01 05:50:39;;;;;;;0.00;0.00;;;;;;;14.89;52.75;99006.09;4956813;28;20224;-52
2023/01/01 05:53:06;;;;;;;0.00;0.00;;;;;;;14.88;52.68;98999.22;4952326;28;20235;-52
2023/01/01 05:55:32;;;;;;;0.00;0.00;;;;;;;14.85;52.75;98991.66;4957753;28;20277;-52
2023/01/01 05:57:59;;;;;;;0.00;0.00;;;;;;;14.73;53.77;98995.66;4955349;28;20639;-51
2023/01/01 06:00:27;;;;;;;6.97;2.47;;;;;;;14.72;53.12;98996.66;4958467;28;20813;-54
2023/01/01 06:02:55;;;;;;;4.57;1.30;;;;;;;14.64;53.36;99005.34;4952033;28;20251;-54
2023/01/01 06:05:21;;;;;;;6.33;1.40;;;;;;;14.67;53.83;99006.81;4956276;28;20227;-54
2023/01/01 06:07:48;;;;;;;5.03;1.30;;;;;;;14.69;52.94;99010.94;4953565;28;20220;-53
2023/01/01 06:10:14;;;;;;;6.47;1.50;;;;;;;14.83;52.83;99008.59;4953402;28;20785;-54
2023/01/01 06:12:41;;;;;;;6.30;1.50;;;;;;;14.84;52.66;99013.69;4952008;28;20229;-52
2023/01/01 06:15:08;;;;;;;3.67;1.30;;;;;;;14.90;52.37;99004.31;4956133;28;20942;-53
2023/01/01 06:17:35;;;;;;;10.97;4.67;;;;;;;14.82;52.83;99004.34;4955758;28;20235;-53
2023/01/01 06:20:03;;;;;;;8.60;3.10;;;;;;;14.82;52.52;99002.53;4954402;28;20243;-52
2023/01/01 06:22:30;;;;;;;6.47;1.73;;;;;;;14.73;53.35;98998.28;4956048;28;20230;-52
2023/01/01 06:24:56;;;;;;;7.47;1.87;;;;;;;14.82;52.18;99005.16;4952388;28;20231;-54
2023/01/01 06:27:23;;;;;;;6.63;1.53;;;;;;;14.84;52.22;99008.41;4953380;28;20286;-52
2023/01/01 06:29:49;;;;;;;5.87;1.70;;;;;;;14.68;52.70;98995.31;4952255;28;20294;-52
2023/01/01 06:32:16;;;;;;;5.33;1.73;;;;;;;14.55;53.25;99008.97;4954355;28;20286;-52
2023/01/01 06:34:42;;;;;;;6.33;1.60;;;;;;;14.43;53.58;99001.44;4954445;28;20229;-52
2023/01/01 06:37:10;;;;;;;4.17;1.40;;;;;;;14.60;52.25;98988.25;4955813;28;20231;-54
2023/01/01 06:39:37;;;;;;;6.23;2.40;;;;;;;14.40;53.45;99008.84;4956395;28;20214;-53
2023/01/01 06:42:03;;;;;;;7.13;1.80;;;;;;;14.51;53.20;99002.41;4953782;28;20239;-54
2023/01/01 06:44:30;;;;;;;7.53;2.43;;;;;;;14.65;53.61;99009.59;4956937;28;20222;-52
2023/01/01 06:46:57;;;;;;;4.40;1.70;;;;;;;14.65;53.12;99000.91;4951604;28;20232;-52
2023/01/01 06:49:23;;;;;;;9.73;2.50;;;;;;;14.83;51.72;99004.19;4955969;28;20744;-54
2023/01/01 06:51:50;;;;;;;11.23;5.53;;;;;;;14.74;52.31;99019.13;4952701;28;20641;-53
2023/01/01 06:54:18;;;;;;;5.33;2.90;;;;;;;14.66;52.13;99018.31;4955403;28;20237;-54
2023/01/01 06:56:44;;;;;;;6.17;2.03;;;;;;;14.58;52.53;99017.34;4954538;28;20223;-53
2023/01/01 06:59:11;;;;;;;8.63;2.00;;;;;;;14.61;52.67;99019.63;4955833;28;20229;-52
2023/01/01 07:01:39;;;;;;;7.40;1.80;;;;;;;14.65;52.37;99027.19;4955488;28;20231;-53
2023/01/01 07:04:08;;;;;;;8.20;1.90;;;;;;;14.57;52.07;99015.69;4952527;28;20277;-52
2023/01/01 07:06:35;;;;;;;5.80;1.87;;;;;;;14.51;52.76;99023.41;4955867;28;20250;-52
2023/01/01 07:09:02;;;;;;;7.03;1.90;;;;;;;14.56;52.66;99029.81;4953630;28;20241;-54
2023/01/01 07:11:30;;;;;;;6.60;1.77;;;;;;;14.69;52.33;99015.34;4957688;28;20587;-52
2023/01/01 07:13:57;;;;;;;6.13;1.67;;;;;;;14.63;52.28;99037.03;4952941;28;20597;-52
2023/01/01 07:16:24;;;;;;;7.80;1.97;;;;;;;14.66;52.45;99034.06;4954862;28;20230;-55
2023/01/01 07:18:52;;;;;;;8.17;2.00;;;;;;;14.63;52.53;99035.22;4953960;28;20912;-52
2023/01/01 07:21:28;;;;;;;7.47;1.90;;;;;;;14.69;52.12;99046.88;4955685;28;20231;-54
2023/01/01 07:23:56;;;;;;;6.97;2.50;;;;;;;14.68;52.17;99058.38;4950850;28;20236;-54
2023/01/01 07:26:23;;;;;;;5.13;2.07;;;;;;;14.69;51.96;99054.75;4956572;28;20588;-55
2023/01/01 07:28:51;;;;;;;6.63;1.50;;;;;;;14.60;52.86;99056.56;4953500;28;20608;-53
2023/01/01 07:31:18;;;;;;;4.53;1.67;;;;;;;14.51;52.79;99055.78;4956026;28;20306;-54
2023/01/01 07:33:44;;;;;;;10.47;1.93;;;;;;;14.54;52.76;99073.00;4951574;28;20224;-53
2023/01/01 07:36:11;;;;;;;5.30;1.80;;;;;;;14.49;53.16;99070.88;4956165;28;20235;-53
2023/01/01 07:38:38;;;;;;;5.40;2.77;;;;;;;14.60;52.38;99072.34;4955776;28;20240;-54
2023/01/01 07:41:04;;;;;;;6.40;2.13;;;;;;;14.51;53.71;99074.16;4953833;28;20297;-52
2023/01/01 07:43:31;;;;;;;8.80;3.13;;;;;;;14.54;53.73;99075.63;4957843;28;20223;-52
2023/01/01 07:45:59;;;;;;;5.27;2.63;;;;;;;14.52;52.78;99075.81;4957122;28;20222;-55
2023/01/01 07:48:26;;;;;;;8.47;3.23;;;;;;;14.46;53.16;99082.50;4958775;28;20233;-53
2023/01/01 07:50:53;;;;;;;12.00;6.00;;;;;;;14.42;53.55;99088.28;4958092;28;20223;-53
2023/01/01 07:53:20;;;;;;;5.77;1.80;;;;;;;14.58;52.47;99098.78;4962504;28;20235;-52
2023/01/01 07:55:47;;;;;;;7.83;1.70;;;;;;;14.61;52.62;99100.25;4958237;28;20259;-53
2023/01/01 07:58:13;;;;;;;8.93;3.80;;;;;;;14.65;53.07;99098.94;4957876;28;20776;-52
2023/01/01 08:00:40;;;;;;;9.20;2.40;;;;;;;14.70;52.82;99101.09;4956199;28;20224;-53
2023/01/01 08:03:09;;;;;;;8.10;2.38;;;;;;;14.76;52.65;99098.63;4950992;28;20967;-53
2023/01/01 08:05:37;;;;;;;7.40;2.20;;;;;;;14.73;52.86;99096.31;4962093;28;20763;-51
2023/01/01 08:08:04;;;;;;;6.47;1.87;;;;;;;14.76;52.87;99110.94;4956023;28;20718;-51
2023/01/01 08:10:31;;;;;;;5.30;1.70;;;;;;;14.71;53.25;99111.44;4957688;28;20222;-51
2023/01/01 08:13:00;;;;;;;4.83;1.50;;;;;;;14.64;53.64;99105.16;4958631;28;20232;-51
2023/01/01 08:15:26;;;;;;;5.40;1.77;;;;;;;14.56;53.45;99102.53;4966011;28;20697;-51
2023/01/01 08:17:56;;;;;;;5.77;1.50;;;;;;;14.63;53.22;99113.22;4954213;28;20651;-51
2023/01/01 08:20:24;;;;;;;5.53;2.03;;;;;;;14.58;54.21;99111.91;4959758;28;20232;-52
2023/01/01 08:22:50;;;;;;;7.87;1.90;;;;;;;14.68;53.13;99121.44;4956814;28;20224;-51
2023/01/01 08:25:17;;;;;;;6.70;1.83;;;;;;;14.67;53.40;99125.06;4961616;28;20343;-51
2023/01/01 08:27:44;;;;;;;6.97;1.90;;;;;;;14.81;52.25;99127.03;4958291;28;20585;-53
2023/01/01 08:30:13;;;;;;;4.97;1.90;;;;;;;14.79;53.16;99126.38;4958956;28;20232;-51
2023/01/01 08:32:40;;;;;;;5.77;1.70;;;;;;;14.84;52.70;99137.19;4958217;28;20220;-52
2023/01/01 08:35:08;;;;;;;6.33;1.73;;;;;;;14.84;53.13;99121.44;4951056;28;20232;-51
2023/01/01 08:37:36;;;;;;;4.93;1.50;;;;;;;14.82;53.61;99135.75;4956284;28;20219;-51
2023/01/01 08:40:02;;;;;;;8.07;1.70;;;;;;;14.98;51.66;99132.25;4955277;28;20275;-51
2023/01/01 08:42:29;;;;;;;9.57;2.10;;;;;;;15.02;52.57;99123.06;4962023;28;20244;-52
2023/01/01 08:44:55;;;;;;;3.73;1.60;;;;;;;14.97;52.59;99126.19;4956288;28;20232;-52
2023/01/01 08:47:24;;;;;;;10.70;3.73;;;;;;;14.93;53.17;99134.56;4957860;28;20234;-51
2023/01/01 08:49:51;;;;;;;0.00;0.00;;;;;;;14.89;53.01;99139.34;4955812;28;20226;-51
2023/01/01 08:52:18;;;;;;;7.40;1.77;;;;;;;15.00;52.74;99140.78;4959440;28;20298;-50
2023/01/01 08:54:46;;;;;;;5.43;1.40;;;;;;;15.00;51.79;99127.66;4958360;28;20230;-53
2023/01/01 08:57:13;;;;;;;8.53;1.80;;;;;;;14.99;52.84;99129.47;4961606;28;20237;-52
2023/01/01 08:59:40;;;;;;;5.37;2.00;;;;;;;15.03;53.10;99120.25;4958193;28;20221;-52
2023/01/01 09:02:06;;;;;;;7.37;1.90;;;;;;;15.18;51.22;99122.22;4951340;28;20723;-51
2023/01/01 09:04:33;;;;;;;3.00;1.43;;;;;;;15.15;53.61;99125.19;4957287;28;20232;-52
2023/01/01 09:07:00;;;;;;;0.00;0.00;;;;;;;15.07;51.83;99136.50;4954431;28;20624;-51
2023/01/01 09:09:26;;;;;;;0.00;0.00;;;;;;;15.08;52.06;99137.34;4959985;28;20640;-52
2023/01/01 09:11:57;;;;;;;0.00;0.00;;;;;;;14.97;52.57;99126.19;4951520;28;20787;-53
2023/01/01 09:14:24;;;;;;;0.00;0.00;;;;;;;14.99;52.16;99134.72;4956138;28;20234;-51
2023/01/01 09:16:51;;;;;;;0.00;0.00;;;;;;;15.03;52.01;99145.72;4955295;28;20290;-53
2023/01/01 09:19:18;;;;;;;0.00;0.00;;;;;;;15.14;51.40;99137.47;4958437;28;20248;-51
2023/01/01 09:21:45;;;;;;;0.00;0.00;;;;;;;15.16;50.63;99143.41;4956714;28;20623;-51
2023/01/01 09:24:11;;;;;;;0.00;0.00;;;;;;;15.35;49.36;99138.75;4956705;28;20243;-52
2023/01/01 09:26:38;;;;;;;0.00;0.00;;;;;;;15.49;49.49;99148.56;4958951;28;20228;-51
2023/01/01 09:29:06;;;;;;;0.00;0.00;;;;;;;15.59;50.14;99152.81;4955117;28;20236;-51
2023/01/01 09:31:32;;;;;;;0.00;0.00;;;;;;;15.54;52.06;99155.94;4956298;28;20622;-51
2023/01/01 09:33:59;;;;;;;0.00;0.00;;;;;;;15.56;50.85;99161.84;4955338;28;20348;-52
2023/01/01 09:36:30;;;;;;;0.00;0.00;;;;;;;15.52;51.47;99165.00;4956833;28;20236;-51
2023/01/01 09:38:57;;;;;;;0.00;0.00;;;;;;;15.49;50.73;99147.75;4957799;28;20214;-51
2023/01/01 09:41:37;;;;;;;0.00;0.00;;;;;;;15.46;51.10;99153.34;4957250;28;20776;-51
2023/01/01 09:44:14;;;;;;;0.00;0.00;;;;;;;15.49;50.24;99156.47;4956869;28;20245;-51
2023/01/01 09:46:41;;;;;;;0.00;0.00;;;;;;;15.66;49.54;99161.69;4954556;28;20227;-53
2023/01/01 09:49:17;;;;;;;0.00;0.00;;;;;;;15.68;50.22;99162.31;4960353;28;20252;-51
2023/01/01 09:51:49;;;;;;;0.00;0.00;;;;;;;15.73;51.51;99165.28;4954462;28;20718;-50
2023/01/01 09:54:26;;;;;;;0.00;0.00;;;;;;;15.74;49.64;99174.81;4955525;28;20239;-52
2023/01/01 09:56:57;;;;;;;0.00;0.00;;;;;;;15.88;48.88;99164.56;4954709;28;20227;-51
2023/01/01 09:59:25;;;;;;;0.00;0.00;;;;;;;15.92;49.33;99164.06;4965991;28;20225;-51
2023/01/01 10:01:57;;;;;;;0.00;0.00;;;;;;;15.92;48.74;99169.31;4955499;28;20691;-53
2023/01/01 10:04:35;;;;;;;0.00;0.00;;;;;;;16.11;47.29;99167.25;4956168;28;20261;-51
2023/01/01 10:07:11;;;;;;;0.00;0.00;;;;;;;16.14;48.03;99173.97;4952925;28;20295;-52
2023/01/01 10:09:45;;;;;;;0.00;0.00;;;;;;;16.08;47.63;99172.84;4957097;28;20282;-51
2023/01/01 10:12:19;;;;;;;0.00;0.00;;;;;;;16.07;48.43;99165.94;4954643;28;20301;-52
2023/01/01 10:14:51;;;;;;;0.00;0.00;;;;;;;16.17;48.30;99170.97;4953926;28;20231;-53
2023/01/01 10:17:26;;;;;;;0.00;0.00;;;;;;;16.41;47.55;99170.03;4956108;28;20233;-50
2023/01/01 10:19:56;;;;;;;0.00;0.00;;;;;;;16.57;47.64;99184.91;4957536;28;20239;-52
2023/01/01 10:22:26;;;;;;;0.00;0.00;;;;;;;16.75;46.49;99181.94;4958288;28;20221;-51
2023/01/01 10:24:58;;;;;;;0.00;0.00;;;;;;;16.82;47.64;99174.97;4954267;28;20689;-51
2023/01/01 10:27:30;;;;;;;0.00;0.00;;;;;;;16.65;47.65;99184.84;4954349;28;20231;-52
2023/01/01 10:30:01;;;;;;;0.00;0.00;;;;;;;16.60;47.77;99184.53;4956444;28;20239;-51
2023/01/01 10:32:30;;;;;;;0.00;0.00;;;;;;;16.50;47.11;99176.84;4957897;28;20237;-53
2023/01/01 10:34:57;;;;;;;0.00;0.00;;;;;;;16.56;47.16;99171.88;4954293;28;20288;-51
2023/01/01 10:37:26;;;;;;;0.00;0.00;;;;;;;16.46;47.97;99169.50;4956318;28;20228;-51
2023/01/01 10:39:53;;;;;;;0.00;0.00;;;;;;;16.73;47.77;99165.47;4955278;28;20249;-50
2023/01/01 10:42:20;;;;;;;0.00;0.00;;;;;;;16.74;46.87;99156.56;4956382;28;20240;-51
2023/01/01 10:44:47;;;;;;;0.00;0.00;;;;;;;17.02;48.39;99158.69;4953718;28;20594;-53
2023/01/01 10:47:27;;;;;;;0.00;0.00;;;;;;;17.28;46.90;99152.16;4970588;28;20234;-52
2023/01/01 10:49:58;;;;;;;0.00;0.00;;;;;;;17.45;44.22;99151.97;4954673;28;20233;-51
2023/01/01 10:52:30;;;;;;;0.00;0.00;;;;;;;17.51;45.12;99138.03;4956340;28;20237;-51
2023/01/01 10:54:58;;;;;;;0.00;0.00;;;;;;;17.56;44.39;99136.47;4954990;28;20236;-52
2023/01/01 10:57:32;;;;;;;0.00;0.00;;;;;;;17.36;44.62;99130.13;4958049;28;20300;-51
2023/01/01 11:00:27;;;;;;;8.47;1.93;;;;;;;17.46;45.13;99117.47;4953356;28;20229;-52
2023/01/01 11:03:18;;;;;;;8.70;3.17;;;;;;;17.56;45.77;99120.66;4918786;28;20293;-51
2023/01/01 11:06:01;;;;;;;10.03;2.30;;;;;;;17.60;44.57;99121.09;4948900;28;20682;-52
2023/01/01 11:08:29;;;;;;;7.63;2.00;;;;;;;17.75;45.25;99118.44;4957415;28;20226;-52
2023/01/01 11:10:58;;;;;;;10.03;1.70;;;;;;;17.73;45.55;99104.59;4951389;28;20304;-51
2023/01/01 11:13:26;;;;;;;6.00;1.80;;;;;;;17.77;45.18;99105.03;4956685;28;20231;-52
2023/01/01 11:15:52;;;;;;;8.60;1.70;;;;;;;17.80;44.41;99092.28;4951777;28;20218;-51
2023/01/01 11:18:25;;;;;;;5.60;1.47;;;;;;;17.76;44.64;99095.47;4954072;28;20732;-51
2023/01/01 11:20:54;;;;;;;4.83;1.53;;;;;;;17.56;45.00;99104.81;4953443;28;20226;-53
2023/01/01 11:23:29;;;;;;;0.00;0.00;;;;;;;17.39;44.31;99093.66;4958769;28;20219;-52
2023/01/01 11:25:58;;;;;;;0.00;0.00;;;;;;;17.36;44.51;99099.28;4951980;28;20227;-51
2023/01/01 11:28:26;;;;;;;0.00;0.00;;;;;;;17.05;45.21;99094.19;4971993;28;20230;-51
2023/01/01 11:31:03;;;;;;;0.00;0.00;;;;;;;17.10;45.25;99090.03;4954165;28;20221;-50
2023/01/01 11:33:33;;;;;;;0.00;0.00;;;;;;;16.96;45.72;99082.88;4955907;28;20286;-51
2023/01/01 11:36:00;;;;;;;0.00;0.00;;;;;;;17.10;45.25;99090.03;4951650;28;20233;-51
2023/01/01 11:38:27;;;;;;;0.00;0.00;;;;;;;17.13;45.72;99088.81;4959499;28;20710;-51
2023/01/01 11:40:56;;;;;;;0.00;0.00;;;;;;;17.32;44.50;99098.03;4950873;28;20226;-51
2023/01/01 11:43:26;;;;;;;0.00;0.00;;;;;;;17.45;44.57;99094.72;4957026;28;20279;-50
2023/01/01 11:45:55;;;;;;;0.00;0.00;;;;;;;17.54;45.17;99084.88;4949140;28;20226;-51